createdAt,value
2022-10-04T00:00:29.202Z,15.80
2022-10-04T00:03:01.232Z,17.00
2022-10-04T00:05:29.534Z,16.57
2022-10-04T00:07:59.179Z,14.23
2022-10-04T00:10:28.672Z,19.43
2022-10-04T00:12:58.900Z,16.10
2022-10-04T00:15:28.997Z,27.87
2022-10-04T00:18:01.100Z,14.27
2022-10-04T00:20:46.905Z,11.73
2022-10-04T00:23:27.519Z,15.33
2022-10-04T00:25:55.663Z,13.53
2022-10-04T00:28:30.539Z,14.63
2022-10-04T00:31:12.897Z,13.73
2022-10-04T00:33:40.779Z,14.33
2022-10-04T00:36:22.748Z,11.33
2022-10-04T00:39:02.624Z,16.50
2022-10-04T00:41:31.000Z,12.80
2022-10-04T00:43:58.548Z,12.83
2022-10-04T00:46:29.129Z,12.40
2022-10-04T00:48:58.367Z,11.27
2022-10-04T00:51:28.701Z,13.67
2022-10-04T00:53:59.747Z,15.03
2022-10-04T00:56:30.102Z,8.73
2022-10-04T00:59:11.602Z,13.47
2022-10-04T01:01:40.348Z,20.87
2022-10-04T01:04:15.089Z,9.83
2022-10-04T01:06:42.882Z,12.90
2022-10-04T01:09:12.330Z,11.43
2022-10-04T01:11:43.220Z,15.10
2022-10-04T01:14:15.394Z,16.60
2022-10-04T01:16:44.057Z,10.30
2022-10-04T01:19:26.573Z,12.20
2022-10-04T01:21:58.664Z,10.77
2022-10-04T01:24:33.470Z,10.80
2022-10-04T01:27:00.789Z,14.90
2022-10-04T01:29:29.367Z,10.10
2022-10-04T01:31:57.812Z,12.30
2022-10-04T01:34:25.806Z,11.20
2022-10-04T01:36:54.817Z,11.10
2022-10-04T01:39:22.980Z,8.40
2022-10-04T01:41:55.040Z,11.50
2022-10-04T01:44:25.217Z,9.63
2022-10-04T01:46:53.150Z,15.53
2022-10-04T01:49:21.449Z,11.83
2022-10-04T01:51:53.081Z,13.63
2022-10-04T01:54:23.257Z,10.00
2022-10-04T01:56:54.063Z,16.13
2022-10-04T01:59:23.524Z,13.03
2022-10-04T02:01:52.848Z,11.70
2022-10-04T02:04:22.405Z,13.83
2022-10-04T02:06:51.878Z,12.77
2022-10-04T02:09:19.940Z,22.37
2022-10-04T02:11:49.331Z,13.33
2022-10-04T02:14:19.491Z,14.30
2022-10-04T02:16:47.521Z,15.13
2022-10-04T02:19:15.728Z,14.67
2022-10-04T02:21:43.314Z,12.53
2022-10-04T02:24:11.108Z,11.00
2022-10-04T02:26:38.339Z,15.93
2022-10-04T02:29:05.554Z,14.03
2022-10-04T02:31:34.268Z,13.57
2022-10-04T02:34:01.416Z,18.23
2022-10-04T02:36:29.320Z,16.93
2022-10-04T02:39:00.026Z,10.93
2022-10-04T02:41:29.008Z,18.93
2022-10-04T02:43:57.177Z,11.63
2022-10-04T02:46:26.317Z,12.00
2022-10-04T02:48:56.561Z,14.03
2022-10-04T02:51:25.711Z,11.53
2022-10-04T02:54:03.418Z,24.03
2022-10-04T02:56:31.399Z,16.27
2022-10-04T02:59:01.390Z,20.37
2022-10-04T03:01:29.680Z,11.43
2022-10-04T03:03:58.785Z,10.63
2022-10-04T03:06:29.237Z,16.33
2022-10-04T03:08:57.573Z,14.20
2022-10-04T03:11:25.688Z,20.33
2022-10-04T03:13:54.100Z,13.90
2022-10-04T03:16:21.699Z,15.03
2022-10-04T03:18:49.641Z,14.33
2022-10-04T03:21:19.442Z,11.70
2022-10-04T03:23:47.409Z,18.57
2022-10-04T03:26:17.088Z,13.23
2022-10-04T03:28:44.205Z,8.50
2022-10-04T03:31:11.391Z,15.90
2022-10-04T03:33:38.615Z,11.10
2022-10-04T03:36:05.966Z,13.87
2022-10-04T03:38:35.651Z,14.57
2022-10-04T03:41:03.275Z,11.60
2022-10-04T03:43:31.563Z,18.47
2022-10-04T03:45:59.562Z,13.90
2022-10-04T03:48:29.338Z,14.37
2022-10-04T03:50:56.439Z,17.47
2022-10-04T03:53:34.951Z,14.30
2022-10-04T03:56:08.241Z,16.60
2022-10-04T03:58:36.397Z,12.80
2022-10-04T04:01:11.945Z,14.70
2022-10-04T04:03:45.553Z,15.43
2022-10-04T04:06:15.710Z,13.00
2022-10-04T04:08:44.090Z,13.63
2022-10-04T04:11:15.703Z,13.63
2022-10-04T04:13:47.381Z,16.40
2022-10-04T04:16:14.980Z,14.70
2022-10-04T04:18:43.968Z,15.37
2022-10-04T04:21:13.572Z,14.80
2022-10-04T04:23:42.190Z,15.60
2022-10-04T04:26:23.952Z,14.63
2022-10-04T04:28:51.991Z,19.20
2022-10-04T04:31:22.595Z,19.90
2022-10-04T04:33:52.042Z,14.07
2022-10-04T04:36:19.142Z,21.87
2022-10-04T04:38:46.210Z,15.10
2022-10-04T04:41:13.343Z,25.60
2022-10-04T04:43:44.786Z,15.77
2022-10-04T04:46:28.166Z,13.70
2022-10-04T04:48:58.380Z,19.30
2022-10-04T04:51:25.554Z,17.87
2022-10-04T04:53:53.429Z,19.87
2022-10-04T04:56:21.623Z,19.47
2022-10-04T04:58:51.721Z,19.33
2022-10-04T05:01:21.940Z,20.73
2022-10-04T05:04:00.261Z,18.13
2022-10-04T05:06:28.602Z,16.50
2022-10-04T05:08:55.703Z,16.87
2022-10-04T05:11:23.564Z,18.60
2022-10-04T05:13:52.943Z,22.67
2022-10-04T05:16:21.425Z,25.33
2022-10-04T05:18:48.837Z,20.27
2022-10-04T05:21:21.022Z,27.67
2022-10-04T05:23:48.214Z,33.63
2022-10-04T05:26:15.484Z,20.33
2022-10-04T05:28:42.582Z,20.30
2022-10-04T05:31:27.692Z,23.83
2022-10-04T05:33:57.471Z,24.40
2022-10-04T05:36:40.269Z,32.30
2022-10-04T05:39:11.547Z,28.33
2022-10-04T05:41:39.942Z,18.17
2022-10-04T05:44:18.471Z,25.17
2022-10-04T05:46:45.768Z,20.60
2022-10-04T05:49:19.128Z,24.13
2022-10-04T05:51:50.755Z,28.23
2022-10-04T05:54:19.819Z,23.43
2022-10-04T05:57:00.958Z,21.37
2022-10-04T05:59:44.329Z,22.40
2022-10-04T06:02:18.756Z,24.30
2022-10-04T06:04:56.278Z,21.17
2022-10-04T06:07:26.068Z,28.67
2022-10-04T06:10:20.002Z,26.60
2022-10-04T06:12:52.170Z,23.30
2022-10-04T06:15:46.386Z,25.10
2022-10-04T06:18:28.341Z,22.93
2022-10-04T06:21:05.635Z,22.07
2022-10-04T06:23:35.716Z,22.13
2022-10-04T06:26:05.914Z,25.63
2022-10-04T06:28:35.613Z,26.07
2022-10-04T06:31:09.587Z,19.27
2022-10-04T06:33:43.680Z,18.70
2022-10-04T06:36:32.022Z,21.07
2022-10-04T06:39:06.311Z,24.20
2022-10-04T06:41:41.525Z,17.73
2022-10-04T06:44:28.084Z,17.33
2022-10-04T06:46:59.728Z,20.00
2022-10-04T06:49:32.489Z,17.50
2022-10-04T06:52:05.702Z,22.30
2022-10-04T06:54:43.577Z,18.77
2022-10-04T06:57:17.350Z,18.37
2022-10-04T06:59:53.207Z,19.33
2022-10-04T07:02:22.502Z,14.03
2022-10-04T07:05:07.525Z,15.83
2022-10-04T07:07:37.751Z,13.10
2022-10-04T07:10:17.711Z,20.00
2022-10-04T07:12:47.786Z,20.70
2022-10-04T07:15:17.161Z,14.33
2022-10-04T07:17:46.349Z,14.90
2022-10-04T07:20:18.458Z,16.20
2022-10-04T07:22:47.836Z,17.03
2022-10-04T07:25:19.662Z,13.03
2022-10-04T07:27:48.818Z,14.40
2022-10-04T07:30:16.800Z,14.27
2022-10-04T07:32:45.747Z,19.57
2022-10-04T07:35:20.767Z,20.93
2022-10-04T07:37:49.298Z,13.60
2022-10-04T07:40:23.138Z,15.97
2022-10-04T07:42:52.909Z,15.23
2022-10-04T07:45:22.050Z,15.40
2022-10-04T07:47:49.249Z,17.13
2022-10-04T07:50:25.882Z,15.17
2022-10-04T07:52:56.831Z,15.73
2022-10-04T07:55:26.776Z,20.13
2022-10-04T07:57:57.802Z,16.47
2022-10-04T08:00:26.933Z,17.77
2022-10-04T08:02:59.537Z,13.40
2022-10-04T08:05:29.382Z,21.63
2022-10-04T08:08:13.824Z,19.33
2022-10-04T08:10:47.186Z,11.97
2022-10-04T08:13:18.446Z,14.53
2022-10-04T08:15:45.689Z,18.03
2022-10-04T08:18:22.091Z,14.87
2022-10-04T08:20:50.722Z,14.80
2022-10-04T08:23:24.836Z,18.27
2022-10-04T08:25:57.565Z,16.70
2022-10-04T08:28:32.858Z,17.83
2022-10-04T08:31:05.682Z,14.27
2022-10-04T08:33:42.510Z,18.33
2022-10-04T08:36:18.748Z,13.83
2022-10-04T08:38:49.547Z,11.77
2022-10-04T08:41:49.782Z,20.33
2022-10-04T08:44:41.241Z,12.40
2022-10-04T08:47:31.862Z,12.90
2022-10-04T08:50:23.090Z,16.87
2022-10-04T08:52:59.114Z,14.80
2022-10-04T08:55:38.622Z,10.33
2022-10-04T08:58:13.261Z,10.20
2022-10-04T09:00:48.151Z,12.33
2022-10-04T09:03:31.412Z,8.83
2022-10-04T09:06:08.909Z,10.90
2022-10-04T09:08:48.355Z,16.83
2022-10-04T09:11:29.602Z,10.30
2022-10-04T09:14:03.930Z,12.83
2022-10-04T09:16:33.968Z,11.13
2022-10-04T09:19:19.854Z,15.00
2022-10-04T09:21:59.148Z,7.90
2022-10-04T09:24:59.715Z,9.10
2022-10-04T09:27:54.027Z,6.67
2022-10-04T09:30:22.771Z,12.97
2022-10-04T09:32:59.520Z,9.60
2022-10-04T09:35:42.103Z,7.17
2022-10-04T09:38:24.138Z,9.30
2022-10-04T09:40:58.595Z,13.17
2022-10-04T09:43:44.360Z,11.50
2022-10-04T09:46:18.554Z,11.77
2022-10-04T09:48:53.270Z,10.50
2022-10-04T09:51:25.449Z,10.43
2022-10-04T09:53:59.476Z,8.03
2022-10-04T09:56:36.865Z,10.10
2022-10-04T09:59:14.349Z,9.27
2022-10-04T10:01:45.340Z,7.10
2022-10-04T10:04:30.793Z,8.50
2022-10-04T10:07:09.190Z,10.23
2022-10-04T10:09:38.829Z,7.60
2022-10-04T10:12:17.958Z,8.00
2022-10-04T10:15:02.728Z,8.33
2022-10-04T10:17:33.041Z,6.93
2022-10-04T10:20:18.049Z,9.70
2022-10-04T10:23:03.484Z,6.37
2022-10-04T10:25:39.267Z,9.47
2022-10-04T10:28:17.173Z,8.50
2022-10-04T10:30:50.925Z,7.57
2022-10-04T10:33:38.030Z,8.97
2022-10-04T10:36:16.412Z,5.93
2022-10-04T10:38:51.437Z,6.37
2022-10-04T10:41:32.702Z,6.57
2022-10-04T10:44:16.172Z,8.10
2022-10-04T10:46:49.225Z,6.00
2022-10-04T10:49:23.603Z,5.77
2022-10-04T10:52:00.573Z,7.80
2022-10-04T10:54:41.815Z,7.30
2022-10-04T10:57:14.164Z,5.70
2022-10-04T11:00:01.941Z,5.77
2022-10-04T11:03:03.273Z,11.40
2022-10-04T11:05:59.963Z,8.63
2022-10-04T11:08:45.688Z,10.80
2022-10-04T11:11:22.711Z,8.20
2022-10-04T11:14:13.882Z,8.23
2022-10-04T11:16:59.463Z,6.43
2022-10-04T11:19:38.004Z,6.30
2022-10-04T11:22:23.920Z,7.67
2022-10-04T11:25:17.927Z,10.50
2022-10-04T11:27:49.546Z,7.53
2022-10-04T11:30:19.526Z,12.53
2022-10-04T11:32:57.677Z,13.00
2022-10-04T11:35:34.108Z,7.60
2022-10-04T11:38:06.491Z,8.27
2022-10-04T11:40:45.018Z,13.33
2022-10-04T11:43:21.791Z,10.00
2022-10-04T11:46:07.261Z,9.00
2022-10-04T11:48:42.242Z,6.30
2022-10-04T11:51:30.998Z,12.03
2022-10-04T11:54:13.012Z,6.60
2022-10-04T11:56:47.151Z,10.50
2022-10-04T11:59:20.386Z,5.43
2022-10-04T12:01:54.673Z,8.40
2022-10-04T12:04:36.936Z,5.80
2022-10-04T12:07:10.222Z,9.97
2022-10-04T12:09:41.381Z,10.23
2022-10-04T12:12:19.289Z,5.33
2022-10-04T12:15:00.498Z,9.90
2022-10-04T12:17:50.030Z,4.80
2022-10-04T12:20:25.800Z,6.97
2022-10-04T12:23:06.285Z,8.50
2022-10-04T12:25:54.057Z,6.07
2022-10-04T12:28:30.658Z,6.60
2022-10-04T12:31:08.574Z,8.03
2022-10-04T12:33:37.814Z,7.77
2022-10-04T12:36:13.058Z,5.63
2022-10-04T12:38:49.241Z,9.90
2022-10-04T12:41:24.550Z,6.40
2022-10-04T12:43:55.446Z,3.97
2022-10-04T12:46:29.892Z,6.57
2022-10-04T12:49:03.407Z,8.60
2022-10-04T12:51:36.215Z,6.10
2022-10-04T12:54:11.223Z,8.40
2022-10-04T12:56:44.548Z,8.27
2022-10-04T12:59:16.869Z,7.27
2022-10-04T13:01:48.889Z,9.67
2022-10-04T13:04:21.420Z,7.00
2022-10-04T13:06:54.726Z,9.57
2022-10-04T13:09:29.278Z,5.27
2022-10-04T13:12:04.714Z,4.73
2022-10-04T13:14:43.662Z,5.13
2022-10-04T13:17:28.174Z,8.03
2022-10-04T13:20:04.539Z,7.50
2022-10-04T13:25:27.030Z,4.97
2022-10-04T13:27:58.768Z,10.00
2022-10-04T13:30:27.211Z,5.83
2022-10-04T13:33:00.926Z,8.60
2022-10-04T13:35:35.866Z,5.83
2022-10-04T13:38:13.949Z,6.03
2022-10-04T13:40:53.032Z,7.40
2022-10-04T13:43:38.175Z,8.20
2022-10-04T13:46:10.143Z,7.03
2022-10-04T13:48:51.133Z,7.60
2022-10-04T13:51:39.107Z,6.90
2022-10-04T13:54:13.845Z,5.63
2022-10-04T13:56:55.852Z,6.80
2022-10-04T13:59:32.233Z,7.57
2022-10-04T14:02:25.450Z,4.60
2022-10-04T14:05:10.703Z,6.20
2022-10-04T14:07:58.649Z,6.53
2022-10-04T14:10:44.767Z,5.03
2022-10-04T14:13:26.780Z,5.73
2022-10-04T14:16:19.639Z,4.50
2022-10-04T14:19:09.263Z,3.83
2022-10-04T14:21:48.298Z,6.70
2022-10-04T14:24:39.573Z,5.77
2022-10-04T14:27:27.764Z,9.40
2022-10-04T14:30:04.997Z,7.63
2022-10-04T14:32:52.876Z,6.50
2022-10-04T14:35:23.243Z,4.53
2022-10-04T14:38:01.856Z,6.47
2022-10-04T14:40:43.886Z,5.63
2022-10-04T14:43:22.286Z,6.50
2022-10-04T14:45:56.487Z,7.97
2022-10-04T14:48:28.667Z,4.53
2022-10-04T14:51:04.696Z,9.03
2022-10-04T14:53:33.156Z,6.00
2022-10-04T14:56:09.875Z,4.70
2022-10-04T14:58:41.783Z,5.70
2022-10-04T15:01:17.184Z,10.17
2022-10-04T15:03:50.539Z,4.93
2022-10-04T15:06:26.414Z,4.80
2022-10-04T15:09:10.890Z,5.60
2022-10-04T15:11:43.363Z,5.07
2022-10-04T15:14:28.526Z,5.67
2022-10-04T15:16:58.974Z,5.00
2022-10-04T15:19:27.743Z,5.20
2022-10-04T15:22:01.213Z,5.73
2022-10-04T15:24:30.037Z,14.17
2022-10-04T15:27:15.913Z,3.10
2022-10-04T15:29:48.012Z,8.00
2022-10-04T15:32:20.968Z,5.37
2022-10-04T15:34:50.873Z,5.53
2022-10-04T15:37:21.498Z,8.03
2022-10-04T15:39:58.370Z,7.87
2022-10-04T15:42:27.382Z,4.83
2022-10-04T15:45:06.759Z,6.90
2022-10-04T15:47:37.292Z,9.97
2022-10-04T15:50:09.121Z,5.03
2022-10-04T15:52:47.832Z,7.73
2022-10-04T15:55:19.592Z,4.40
2022-10-04T15:58:01.734Z,9.83
2022-10-04T16:00:30.036Z,5.00
2022-10-04T16:03:05.147Z,6.20
2022-10-04T16:05:36.038Z,6.87
2022-10-04T16:08:14.421Z,7.57
2022-10-04T16:10:52.330Z,6.43
2022-10-04T16:13:37.442Z,4.57
2022-10-04T16:16:21.909Z,4.93
2022-10-04T16:18:53.081Z,7.50
2022-10-04T16:21:29.153Z,5.97
2022-10-04T16:24:11.144Z,5.03
2022-10-04T16:26:56.997Z,6.20
2022-10-04T16:29:30.158Z,6.93
2022-10-04T16:31:59.128Z,5.60
2022-10-04T16:34:40.306Z,4.87
2022-10-04T16:37:14.438Z,6.00
2022-10-04T16:39:50.367Z,13.33
2022-10-04T16:42:19.134Z,4.63
2022-10-04T16:44:49.842Z,13.47
2022-10-04T16:47:20.495Z,7.03
2022-10-04T16:49:53.473Z,9.10
2022-10-04T16:52:38.280Z,7.90
2022-10-04T16:55:19.896Z,7.13
2022-10-04T16:58:21.852Z,5.37
2022-10-04T17:00:49.558Z,6.97
2022-10-04T17:03:23.994Z,9.40
2022-10-04T17:06:10.673Z,8.13
2022-10-04T17:08:47.629Z,13.47
2022-10-04T17:11:29.028Z,8.03
2022-10-04T17:14:00.261Z,10.10
2022-10-04T17:16:31.533Z,11.23
2022-10-04T17:19:16.141Z,5.90
2022-10-04T17:21:50.326Z,6.60
2022-10-04T17:24:21.233Z,10.17
2022-10-04T17:27:01.916Z,9.13
2022-10-04T17:29:36.440Z,6.03
2022-10-04T17:32:06.005Z,12.57
2022-10-04T17:34:41.555Z,10.10
2022-10-04T17:37:15.761Z,12.73
2022-10-04T17:39:45.054Z,13.43
2022-10-04T17:42:18.757Z,8.67
2022-10-04T17:44:53.193Z,9.00
2022-10-04T17:47:24.291Z,10.53
2022-10-04T17:49:59.461Z,22.50
2022-10-04T17:52:30.499Z,6.80
2022-10-04T17:55:00.038Z,7.03
2022-10-04T17:57:29.921Z,13.63
2022-10-04T18:00:00.155Z,12.50
2022-10-04T18:02:31.587Z,11.17
2022-10-04T18:05:00.738Z,11.53
2022-10-04T18:07:32.597Z,10.07
2022-10-04T18:10:01.749Z,7.53
2022-10-04T18:12:30.816Z,11.87
2022-10-04T18:15:05.179Z,9.80
2022-10-04T18:17:35.410Z,12.50
2022-10-04T18:20:15.738Z,8.60
2022-10-04T18:22:46.480Z,11.70
2022-10-04T18:25:15.116Z,10.93
2022-10-04T18:27:49.067Z,18.30
2022-10-04T18:30:17.198Z,9.07
2022-10-04T18:32:45.961Z,7.13
2022-10-04T18:35:20.904Z,12.17
2022-10-04T18:37:49.642Z,9.43
2022-10-04T18:42:54.572Z,13.93
2022-10-04T18:45:23.223Z,11.43
2022-10-04T18:47:50.533Z,13.40
2022-10-04T18:50:23.311Z,18.37
2022-10-04T18:52:56.369Z,10.03
2022-10-04T18:55:30.198Z,8.57
2022-10-04T18:58:01.265Z,10.77
2022-10-04T19:00:31.800Z,16.23
2022-10-04T19:03:02.910Z,12.30
2022-10-04T19:05:35.530Z,13.00
2022-10-04T19:08:08.110Z,14.30
2022-10-04T19:10:37.799Z,20.43
2022-10-04T19:13:13.127Z,10.80
2022-10-04T19:15:42.994Z,11.63
2022-10-04T19:18:17.250Z,10.07
2022-10-04T19:20:47.711Z,10.97
2022-10-04T19:23:24.318Z,16.50
2022-10-04T19:26:26.210Z,13.30
2022-10-04T19:28:41.306Z,15.60
2022-10-04T19:31:13.168Z,11.10
2022-10-04T19:33:44.631Z,9.10
2022-10-04T19:36:16.866Z,8.43
2022-10-04T19:38:48.704Z,9.80
2022-10-04T19:41:20.935Z,14.77
2022-10-04T19:43:51.608Z,12.20
2022-10-04T19:46:24.857Z,10.40
2022-10-04T19:48:52.559Z,9.30
2022-10-04T19:51:26.676Z,12.80
2022-10-04T19:53:56.738Z,13.93
2022-10-04T19:56:27.090Z,10.60
2022-10-04T19:58:57.174Z,12.83
2022-10-04T20:01:25.155Z,13.17
2022-10-04T20:03:52.659Z,15.40
2022-10-04T20:06:21.021Z,10.40
2022-10-04T20:08:55.706Z,12.63
2022-10-04T20:11:28.216Z,13.00
2022-10-04T20:14:14.230Z,16.40
2022-10-04T20:16:59.916Z,12.37
2022-10-04T20:19:37.484Z,17.97
2022-10-04T20:22:19.447Z,15.07
2022-10-04T20:24:50.505Z,10.60
2022-10-04T20:27:32.508Z,10.20
2022-10-04T20:30:01.755Z,10.97
2022-10-04T20:32:47.592Z,14.10
2022-10-04T20:35:34.669Z,12.10
2022-10-04T20:38:31.797Z,11.63
2022-10-04T20:40:59.798Z,14.57
2022-10-04T20:43:26.921Z,16.57
2022-10-04T20:45:55.731Z,15.23
2022-10-04T20:48:23.768Z,15.30
2022-10-04T20:50:51.066Z,15.73
2022-10-04T20:53:19.814Z,16.83
2022-10-04T20:55:46.942Z,14.07
2022-10-04T20:58:28.659Z,15.87
2022-10-04T21:00:58.300Z,12.97
2022-10-04T21:03:25.778Z,15.10
2022-10-04T21:06:00.324Z,12.20
2022-10-04T21:08:27.815Z,15.60
2022-10-04T21:11:05.269Z,10.47
2022-10-04T21:13:56.462Z,13.53
2022-10-04T21:16:38.592Z,12.77
2022-10-04T21:19:24.293Z,17.70
2022-10-04T21:21:51.450Z,13.33
2022-10-04T21:24:28.691Z,15.70
2022-10-04T21:26:56.068Z,12.17
2022-10-04T21:29:23.136Z,15.37
2022-10-04T21:31:51.629Z,16.00
2022-10-04T21:34:34.776Z,10.63
2022-10-04T21:37:05.891Z,14.13
2022-10-04T21:39:32.992Z,14.10
2022-10-04T21:42:00.114Z,18.27
2022-10-04T21:44:27.207Z,14.53
2022-10-04T21:46:55.621Z,10.37
2022-10-04T21:49:22.777Z,13.87
2022-10-04T21:51:49.846Z,12.70
2022-10-04T21:54:16.947Z,14.03
2022-10-04T21:56:44.229Z,13.17
2022-10-04T21:59:11.497Z,10.70
2022-10-04T22:01:38.598Z,10.77
2022-10-04T22:04:07.057Z,12.90
2022-10-04T22:06:34.147Z,14.23
2022-10-04T22:09:01.276Z,11.50
2022-10-04T22:11:28.400Z,11.30
2022-10-04T22:13:55.513Z,10.77
2022-10-04T22:16:22.680Z,11.60
2022-10-04T22:18:49.784Z,12.33
2022-10-04T22:21:18.276Z,10.97
2022-10-04T22:23:45.706Z,15.80
2022-10-04T22:26:14.011Z,10.93
2022-10-04T22:28:45.162Z,7.50
2022-10-04T22:31:13.067Z,11.83
2022-10-04T22:33:41.138Z,9.70
2022-10-04T22:36:15.567Z,8.80
2022-10-04T22:38:45.606Z,9.77
2022-10-04T22:41:13.478Z,11.97
2022-10-04T22:43:40.670Z,10.00
2022-10-04T22:46:12.745Z,11.67
2022-10-04T22:48:39.942Z,12.13
2022-10-04T22:51:08.944Z,6.83
2022-10-04T22:53:36.102Z,12.20
2022-10-04T22:56:04.556Z,10.43
2022-10-04T22:58:32.385Z,12.70
2022-10-04T23:01:00.842Z,9.93
2022-10-04T23:03:29.005Z,10.07
2022-10-04T23:05:56.088Z,11.23
2022-10-04T23:08:23.179Z,8.53
2022-10-04T23:10:53.409Z,8.47
2022-10-04T23:13:24.730Z,11.30
2022-10-04T23:15:52.179Z,8.47
2022-10-04T23:18:19.368Z,14.40
2022-10-04T23:20:49.479Z,15.70
2022-10-04T23:23:16.650Z,8.97
2022-10-04T23:25:43.749Z,14.90
2022-10-04T23:28:12.817Z,11.20
2022-10-04T23:30:41.445Z,14.00
2022-10-04T23:33:14.199Z,13.00
2022-10-04T23:35:41.300Z,10.93
2022-10-04T23:38:13.624Z,10.90
2022-10-04T23:40:40.785Z,14.97
2022-10-04T23:43:28.921Z,9.70
2022-10-04T23:45:58.429Z,11.50
2022-10-04T23:48:26.818Z,12.60
2022-10-04T23:50:54.754Z,11.10
2022-10-04T23:53:23.774Z,11.43
2022-10-04T23:55:50.852Z,12.93
2022-10-04T23:58:19.701Z,13.53
